sensor_id;sensor_type;location;lat;lon;timestamp;P1;durP1;ratioP1;P2;durP2;ratioP2
37971;SDS011;23794;48.234;8.344;2023-04-03T00:00:32;10.82;;;5.88;;
37971;SDS011;23794;48.234;8.344;2023-04-03T00:02:59;7.35;;;4.95;;
37971;SDS011;23794;48.234;8.344;2023-04-03T00:05:25;6.43;;;5.28;;
37971;SDS011;23794;48.234;8.344;2023-04-03T00:07:52;7.22;;;5.32;;
37971;SDS011;23794;48.234;8.344;2023-04-03T00:10:19;7.57;;;5.13;;
37971;SDS011;23794;48.234;8.344;2023-04-03T00:12:46;9.63;;;5.78;;
37971;SDS011;23794;48.234;8.344;2023-04-03T00:15:12;6.60;;;5.38;;
37971;SDS011;23794;48.234;8.344;2023-04-03T00:17:39;6.70;;;5.28;;
37971;SDS011;23794;48.234;8.344;2023-04-03T00:20:06;6.07;;;4.43;;
37971;SDS011;23794;48.234;8.344;2023-04-03T00:22:34;7.65;;;5.93;;
37971;SDS011;23794;48.234;8.344;2023-04-03T00:25:00;6.88;;;5.43;;
37971;SDS011;23794;48.234;8.344;2023-04-03T00:27:27;5.07;;;3.88;;
37971;SDS011;23794;48.234;8.344;2023-04-03T00:29:54;7.55;;;5.28;;
37971;SDS011;23794;48.234;8.344;2023-04-03T00:32:21;6.45;;;4.90;;
37971;SDS011;23794;48.234;8.344;2023-04-03T00:34:48;8.10;;;6.00;;
37971;SDS011;23794;48.234;8.344;2023-04-03T00:37:14;6.07;;;5.05;;
37971;SDS011;23794;48.234;8.344;2023-04-03T00:39:41;7.65;;;5.00;;
37971;SDS011;23794;48.234;8.344;2023-04-03T00:42:08;5.88;;;4.75;;
37971;SDS011;23794;48.234;8.344;2023-04-03T00:47:02;6.35;;;5.05;;
37971;SDS011;23794;48.234;8.344;2023-04-03T00:49:31;4.80;;;3.72;;
37971;SDS011;23794;48.234;8.344;2023-04-03T00:51:58;6.72;;;4.43;;
37971;SDS011;23794;48.234;8.344;2023-04-03T00:54:25;6.50;;;4.57;;
37971;SDS011;23794;48.234;8.344;2023-04-03T00:56:53;5.38;;;4.65;;
37971;SDS011;23794;48.234;8.344;2023-04-03T00:59:26;7.05;;;4.32;;
37971;SDS011;23794;48.234;8.344;2023-04-03T01:01:59;5.70;;;4.90;;
37971;SDS011;23794;48.234;8.344;2023-04-03T01:09:28;5.57;;;4.15;;
37971;SDS011;23794;48.234;8.344;2023-04-03T01:12:12;5.43;;;4.75;;
37971;SDS011;23794;48.234;8.344;2023-04-03T01:14:50;6.95;;;4.10;;
37971;SDS011;23794;48.234;8.344;2023-04-03T01:17:33;7.22;;;4.50;;
37971;SDS011;23794;48.234;8.344;2023-04-03T01:25:39;5.13;;;4.00;;
37971;SDS011;23794;48.234;8.344;2023-04-03T01:28:27;4.63;;;4.07;;
37971;SDS011;23794;48.234;8.344;2023-04-03T01:33:32;4.95;;;4.10;;
37971;SDS011;23794;48.234;8.344;2023-04-03T01:35:59;4.43;;;4.03;;
37971;SDS011;23794;48.234;8.344;2023-04-03T01:38:27;5.43;;;4.13;;
37971;SDS011;23794;48.234;8.344;2023-04-03T01:40:53;6.43;;;4.13;;
37971;SDS011;23794;48.234;8.344;2023-04-03T01:43:20;5.30;;;3.85;;
37971;SDS011;23794;48.234;8.344;2023-04-03T01:45:47;4.90;;;3.60;;
37971;SDS011;23794;48.234;8.344;2023-04-03T01:48:16;4.65;;;3.80;;
37971;SDS011;23794;48.234;8.344;2023-04-03T01:50:43;4.80;;;4.05;;
37971;SDS011;23794;48.234;8.344;2023-04-03T01:53:10;5.32;;;4.45;;
37971;SDS011;23794;48.234;8.344;2023-04-03T01:55:36;5.35;;;4.18;;
37971;SDS011;23794;48.234;8.344;2023-04-03T01:58:03;5.45;;;4.38;;
37971;SDS011;23794;48.234;8.344;2023-04-03T02:00:30;6.18;;;4.53;;
37971;SDS011;23794;48.234;8.344;2023-04-03T02:02:57;4.78;;;3.85;;
37971;SDS011;23794;48.234;8.344;2023-04-03T02:05:24;6.00;;;4.50;;
37971;SDS011;23794;48.234;8.344;2023-04-03T02:07:51;5.20;;;4.00;;
37971;SDS011;23794;48.234;8.344;2023-04-03T02:10:18;5.82;;;4.53;;
37971;SDS011;23794;48.234;8.344;2023-04-03T02:12:45;6.82;;;5.15;;
37971;SDS011;23794;48.234;8.344;2023-04-03T02:15:12;6.35;;;4.60;;
37971;SDS011;23794;48.234;8.344;2023-04-03T02:17:39;8.30;;;5.68;;
37971;SDS011;23794;48.234;8.344;2023-04-03T02:20:06;7.18;;;5.10;;
37971;SDS011;23794;48.234;8.344;2023-04-03T02:22:33;9.10;;;5.72;;
37971;SDS011;23794;48.234;8.344;2023-04-03T02:25:00;7.40;;;5.70;;
37971;SDS011;23794;48.234;8.344;2023-04-03T02:27:27;7.82;;;5.05;;
37971;SDS011;23794;48.234;8.344;2023-04-03T02:29:54;6.15;;;5.15;;
37971;SDS011;23794;48.234;8.344;2023-04-03T02:32:21;6.38;;;5.60;;
37971;SDS011;23794;48.234;8.344;2023-04-03T02:34:47;7.90;;;6.05;;
37971;SDS011;23794;48.234;8.344;2023-04-03T02:37:14;9.27;;;6.72;;
37971;SDS011;23794;48.234;8.344;2023-04-03T02:39:43;7.75;;;6.28;;
37971;SDS011;23794;48.234;8.344;2023-04-03T02:42:10;8.60;;;6.57;;
37971;SDS011;23794;48.234;8.344;2023-04-03T02:44:37;10.45;;;5.95;;
37971;SDS011;23794;48.234;8.344;2023-04-03T02:47:05;9.13;;;7.03;;
37971;SDS011;23794;48.234;8.344;2023-04-03T02:49:32;7.82;;;5.63;;
37971;SDS011;23794;48.234;8.344;2023-04-03T02:51:58;7.75;;;6.25;;
37971;SDS011;23794;48.234;8.344;2023-04-03T02:54:25;7.90;;;5.55;;
37971;SDS011;23794;48.234;8.344;2023-04-03T02:56:57;6.93;;;5.65;;
37971;SDS011;23794;48.234;8.344;2023-04-03T02:59:24;6.80;;;5.53;;
37971;SDS011;23794;48.234;8.344;2023-04-03T03:01:51;8.00;;;5.78;;
37971;SDS011;23794;48.234;8.344;2023-04-03T03:04:18;8.00;;;6.10;;
37971;SDS011;23794;48.234;8.344;2023-04-03T03:06:45;8.45;;;6.13;;
37971;SDS011;23794;48.234;8.344;2023-04-03T03:09:13;7.18;;;5.80;;
37971;SDS011;23794;48.234;8.344;2023-04-03T03:11:41;8.27;;;6.03;;
37971;SDS011;23794;48.234;8.344;2023-04-03T03:14:08;7.75;;;5.53;;
37971;SDS011;23794;48.234;8.344;2023-04-03T03:16:35;9.50;;;7.38;;
37971;SDS011;23794;48.234;8.344;2023-04-03T03:19:01;8.45;;;6.72;;
37971;SDS011;23794;48.234;8.344;2023-04-03T03:21:29;6.53;;;5.13;;
37971;SDS011;23794;48.234;8.344;2023-04-03T03:23:56;7.95;;;5.60;;
37971;SDS011;23794;48.234;8.344;2023-04-03T03:26:22;8.10;;;6.45;;
37971;SDS011;23794;48.234;8.344;2023-04-03T03:28:50;8.57;;;5.95;;
37971;SDS011;23794;48.234;8.344;2023-04-03T03:31:16;9.00;;;6.13;;
37971;SDS011;23794;48.234;8.344;2023-04-03T03:33:43;10.10;;;7.20;;
37971;SDS011;23794;48.234;8.344;2023-04-03T03:36:10;11.15;;;6.90;;
37971;SDS011;23794;48.234;8.344;2023-04-03T03:38:37;7.65;;;6.38;;
37971;SDS011;23794;48.234;8.344;2023-04-03T03:41:04;8.30;;;6.05;;
37971;SDS011;23794;48.234;8.344;2023-04-03T03:43:33;7.80;;;6.15;;
37971;SDS011;23794;48.234;8.344;2023-04-03T03:46:00;8.45;;;6.40;;
37971;SDS011;23794;48.234;8.344;2023-04-03T03:48:27;8.05;;;6.05;;
37971;SDS011;23794;48.234;8.344;2023-04-03T03:50:54;7.93;;;5.68;;
37971;SDS011;23794;48.234;8.344;2023-04-03T03:53:25;7.85;;;6.13;;
37971;SDS011;23794;48.234;8.344;2023-04-03T03:55:56;8.05;;;6.20;;
37971;SDS011;23794;48.234;8.344;2023-04-03T03:58:24;11.63;;;6.28;;
37971;SDS011;23794;48.234;8.344;2023-04-03T04:00:51;9.48;;;6.50;;
37971;SDS011;23794;48.234;8.344;2023-04-03T04:03:18;8.60;;;6.15;;
37971;SDS011;23794;48.234;8.344;2023-04-03T04:05:47;9.18;;;7.18;;
37971;SDS011;23794;48.234;8.344;2023-04-03T04:08:14;8.07;;;5.13;;
37971;SDS011;23794;48.234;8.344;2023-04-03T04:10:43;7.35;;;6.00;;
37971;SDS011;23794;48.234;8.344;2023-04-03T04:13:11;7.85;;;5.75;;
37971;SDS011;23794;48.234;8.344;2023-04-03T04:15:38;9.57;;;7.22;;
37971;SDS011;23794;48.234;8.344;2023-04-03T04:18:05;9.50;;;7.03;;
37971;SDS011;23794;48.234;8.344;2023-04-03T04:20:32;10.18;;;6.18;;
37971;SDS011;23794;48.234;8.344;2023-04-03T04:23:00;8.02;;;5.95;;
37971;SDS011;23794;48.234;8.344;2023-04-03T04:25:27;8.45;;;6.35;;
37971;SDS011;23794;48.234;8.344;2023-04-03T04:27:54;9.15;;;6.82;;
37971;SDS011;23794;48.234;8.344;2023-04-03T04:30:21;9.15;;;6.03;;
37971;SDS011;23794;48.234;8.344;2023-04-03T04:32:49;8.70;;;6.60;;
37971;SDS011;23794;48.234;8.344;2023-04-03T04:35:17;7.38;;;5.85;;
37971;SDS011;23794;48.234;8.344;2023-04-03T04:37:46;8.98;;;6.57;;
37971;SDS011;23794;48.234;8.344;2023-04-03T04:40:14;9.85;;;6.75;;
37971;SDS011;23794;48.234;8.344;2023-04-03T04:42:41;8.90;;;6.55;;
37971;SDS011;23794;48.234;8.344;2023-04-03T04:45:08;7.78;;;6.38;;
37971;SDS011;23794;48.234;8.344;2023-04-03T04:47:38;9.77;;;6.72;;
37971;SDS011;23794;48.234;8.344;2023-04-03T04:50:05;9.85;;;7.05;;
37971;SDS011;23794;48.234;8.344;2023-04-03T04:52:32;9.02;;;6.40;;
37971;SDS011;23794;48.234;8.344;2023-04-03T04:54:59;9.57;;;6.80;;
37971;SDS011;23794;48.234;8.344;2023-04-03T04:57:26;8.45;;;6.45;;
37971;SDS011;23794;48.234;8.344;2023-04-03T04:59:56;7.45;;;6.15;;
37971;SDS011;23794;48.234;8.344;2023-04-03T05:02:23;10.20;;;6.97;;
37971;SDS011;23794;48.234;8.344;2023-04-03T05:04:50;6.10;;;5.05;;
37971;SDS011;23794;48.234;8.344;2023-04-03T05:07:22;7.55;;;6.45;;
37971;SDS011;23794;48.234;8.344;2023-04-03T05:09:49;8.73;;;6.22;;
37971;SDS011;23794;48.234;8.344;2023-04-03T05:12:17;9.23;;;5.97;;
37971;SDS011;23794;48.234;8.344;2023-04-03T05:14:51;7.82;;;6.22;;
37971;SDS011;23794;48.234;8.344;2023-04-03T05:17:17;8.13;;;6.00;;
37971;SDS011;23794;48.234;8.344;2023-04-03T05:19:48;7.85;;;5.75;;
37971;SDS011;23794;48.234;8.344;2023-04-03T05:22:18;8.60;;;6.82;;
37971;SDS011;23794;48.234;8.344;2023-04-03T05:24:45;9.10;;;7.28;;
37971;SDS011;23794;48.234;8.344;2023-04-03T05:27:12;8.45;;;6.15;;
37971;SDS011;23794;48.234;8.344;2023-04-03T05:29:42;8.10;;;5.85;;
37971;SDS011;23794;48.234;8.344;2023-04-03T05:32:14;7.25;;;5.68;;
37971;SDS011;23794;48.234;8.344;2023-04-03T05:34:41;9.98;;;6.57;;
37971;SDS011;23794;48.234;8.344;2023-04-03T05:37:08;7.90;;;5.90;;
37971;SDS011;23794;48.234;8.344;2023-04-03T05:39:35;9.05;;;6.25;;
37971;SDS011;23794;48.234;8.344;2023-04-03T05:42:04;8.35;;;5.25;;
37971;SDS011;23794;48.234;8.344;2023-04-03T05:44:30;8.20;;;5.80;;
37971;SDS011;23794;48.234;8.344;2023-04-03T05:46:57;7.35;;;5.80;;
37971;SDS011;23794;48.234;8.344;2023-04-03T05:49:24;8.45;;;5.75;;
37971;SDS011;23794;48.234;8.344;2023-04-03T05:51:51;8.82;;;6.20;;
37971;SDS011;23794;48.234;8.344;2023-04-03T05:54:25;7.75;;;5.50;;
37971;SDS011;23794;48.234;8.344;2023-04-03T05:57:01;6.70;;;4.82;;
37971;SDS011;23794;48.234;8.344;2023-04-03T05:59:28;9.30;;;5.75;;
37971;SDS011;23794;48.234;8.344;2023-04-03T06:01:57;8.35;;;6.03;;
37971;SDS011;23794;48.234;8.344;2023-04-03T06:04:24;9.20;;;6.28;;
37971;SDS011;23794;48.234;8.344;2023-04-03T06:09:20;9.38;;;6.53;;
37971;SDS011;23794;48.234;8.344;2023-04-03T06:11:48;7.22;;;5.35;;
37971;SDS011;23794;48.234;8.344;2023-04-03T06:14:16;9.18;;;5.80;;
37971;SDS011;23794;48.234;8.344;2023-04-03T06:16:42;7.50;;;5.32;;
37971;SDS011;23794;48.234;8.344;2023-04-03T06:19:10;8.60;;;5.68;;
37971;SDS011;23794;48.234;8.344;2023-04-03T06:21:43;7.90;;;5.40;;
37971;SDS011;23794;48.234;8.344;2023-04-03T06:24:11;8.02;;;6.15;;
37971;SDS011;23794;48.234;8.344;2023-04-03T06:26:41;6.47;;;5.03;;
37971;SDS011;23794;48.234;8.344;2023-04-03T06:29:08;5.80;;;5.05;;
37971;SDS011;23794;48.234;8.344;2023-04-03T06:31:35;7.93;;;5.72;;
37971;SDS011;23794;48.234;8.344;2023-04-03T06:34:05;9.50;;;5.88;;
37971;SDS011;23794;48.234;8.344;2023-04-03T06:36:35;5.82;;;5.03;;
37971;SDS011;23794;48.234;8.344;2023-04-03T06:39:02;6.07;;;4.88;;
37971;SDS011;23794;48.234;8.344;2023-04-03T06:41:29;7.78;;;5.35;;
37971;SDS011;23794;48.234;8.344;2023-04-03T06:43:56;6.85;;;4.85;;
37971;SDS011;23794;48.234;8.344;2023-04-03T06:46:25;6.70;;;5.30;;
37971;SDS011;23794;48.234;8.344;2023-04-03T06:48:53;6.47;;;4.88;;
37971;SDS011;23794;48.234;8.344;2023-04-03T06:51:27;6.65;;;5.00;;
37971;SDS011;23794;48.234;8.344;2023-04-03T06:53:56;5.55;;;4.07;;
37971;SDS011;23794;48.234;8.344;2023-04-03T06:56:24;4.75;;;4.13;;
37971;SDS011;23794;48.234;8.344;2023-04-03T06:58:53;8.00;;;4.75;;
37971;SDS011;23794;48.234;8.344;2023-04-03T07:01:24;5.72;;;4.57;;
37971;SDS011;23794;48.234;8.344;2023-04-03T07:03:52;5.55;;;3.58;;
37971;SDS011;23794;48.234;8.344;2023-04-03T07:06:20;4.57;;;3.83;;
37971;SDS011;23794;48.234;8.344;2023-04-03T07:08:47;5.25;;;4.10;;
37971;SDS011;23794;48.234;8.344;2023-04-03T07:11:16;6.25;;;4.57;;
37971;SDS011;23794;48.234;8.344;2023-04-03T07:13:43;5.55;;;4.38;;
37971;SDS011;23794;48.234;8.344;2023-04-03T07:16:10;5.05;;;4.10;;
37971;SDS011;23794;48.234;8.344;2023-04-03T07:18:37;7.93;;;5.22;;
37971;SDS011;23794;48.234;8.344;2023-04-03T07:21:04;7.43;;;4.95;;
37971;SDS011;23794;48.234;8.344;2023-04-03T07:23:31;6.18;;;4.10;;
37971;SDS011;23794;48.234;8.344;2023-04-03T07:25:58;4.40;;;3.70;;
37971;SDS011;23794;48.234;8.344;2023-04-03T07:28:25;7.35;;;4.07;;
37971;SDS011;23794;48.234;8.344;2023-04-03T07:30:53;6.20;;;4.00;;
37971;SDS011;23794;48.234;8.344;2023-04-03T07:33:26;6.55;;;4.43;;
37971;SDS011;23794;48.234;8.344;2023-04-03T07:35:52;5.30;;;4.20;;
37971;SDS011;23794;48.234;8.344;2023-04-03T07:38:19;5.82;;;3.70;;
37971;SDS011;23794;48.234;8.344;2023-04-03T07:40:49;6.35;;;4.38;;
37971;SDS011;23794;48.234;8.344;2023-04-03T07:43:19;4.47;;;3.70;;
37971;SDS011;23794;48.234;8.344;2023-04-03T07:45:47;4.82;;;3.78;;
37971;SDS011;23794;48.234;8.344;2023-04-03T07:48:17;5.53;;;4.38;;
37971;SDS011;23794;48.234;8.344;2023-04-03T07:50:49;6.28;;;4.00;;
37971;SDS011;23794;48.234;8.344;2023-04-03T07:53:17;5.65;;;4.13;;
37971;SDS011;23794;48.234;8.344;2023-04-03T07:55:46;4.45;;;3.28;;
37971;SDS011;23794;48.234;8.344;2023-04-03T07:58:14;3.70;;;2.88;;
37971;SDS011;23794;48.234;8.344;2023-04-03T08:00:43;3.47;;;2.55;;
37971;SDS011;23794;48.234;8.344;2023-04-03T08:03:11;4.97;;;3.10;;
37971;SDS011;23794;48.234;8.344;2023-04-03T08:05:43;3.40;;;2.60;;
37971;SDS011;23794;48.234;8.344;2023-04-03T08:08:12;5.28;;;3.35;;
37971;SDS011;23794;48.234;8.344;2023-04-03T08:10:40;4.75;;;2.92;;
37971;SDS011;23794;48.234;8.344;2023-04-03T08:13:07;3.70;;;2.90;;
37971;SDS011;23794;48.234;8.344;2023-04-03T08:15:35;4.47;;;2.95;;
37971;SDS011;23794;48.234;8.344;2023-04-03T08:18:03;5.40;;;3.85;;
37971;SDS011;23794;48.234;8.344;2023-04-03T08:20:30;4.65;;;3.15;;
37971;SDS011;23794;48.234;8.344;2023-04-03T08:22:57;6.65;;;4.68;;
37971;SDS011;23794;48.234;8.344;2023-04-03T08:25:24;4.15;;;2.80;;
37971;SDS011;23794;48.234;8.344;2023-04-03T08:27:51;3.92;;;3.17;;
37971;SDS011;23794;48.234;8.344;2023-04-03T08:30:18;3.00;;;2.70;;
37971;SDS011;23794;48.234;8.344;2023-04-03T08:32:44;5.93;;;2.67;;
37971;SDS011;23794;48.234;8.344;2023-04-03T08:35:11;3.10;;;2.10;;
37971;SDS011;23794;48.234;8.344;2023-04-03T08:37:38;2.67;;;2.00;;
37971;SDS011;23794;48.234;8.344;2023-04-03T08:40:07;3.13;;;1.88;;
37971;SDS011;23794;48.234;8.344;2023-04-03T08:48:07;3.20;;;2.55;;
37971;SDS011;23794;48.234;8.344;2023-04-03T08:50:43;4.20;;;2.30;;
37971;SDS011;23794;48.234;8.344;2023-04-03T08:53:19;3.95;;;2.33;;
37971;SDS011;23794;48.234;8.344;2023-04-03T08:55:51;3.40;;;2.05;;
37971;SDS011;23794;48.234;8.344;2023-04-03T08:58:20;3.05;;;2.05;;
37971;SDS011;23794;48.234;8.344;2023-04-03T09:01:14;3.88;;;1.90;;
37971;SDS011;23794;48.234;8.344;2023-04-03T09:03:46;3.20;;;2.20;;
37971;SDS011;23794;48.234;8.344;2023-04-03T09:06:14;2.42;;;1.83;;
37971;SDS011;23794;48.234;8.344;2023-04-03T09:08:49;3.65;;;1.58;;
37971;SDS011;23794;48.234;8.344;2023-04-03T09:22:42;2.80;;;2.00;;
37971;SDS011;23794;48.234;8.344;2023-04-03T09:25:10;2.47;;;1.70;;
37971;SDS011;23794;48.234;8.344;2023-04-03T09:28:00;2.67;;;1.90;;
37971;SDS011;23794;48.234;8.344;2023-04-03T09:30:28;2.95;;;1.92;;
37971;SDS011;23794;48.234;8.344;2023-04-03T09:32:56;2.70;;;1.80;;
37971;SDS011;23794;48.234;8.344;2023-04-03T09:45:51;2.10;;;1.67;;
37971;SDS011;23794;48.234;8.344;2023-04-03T09:48:22;3.30;;;2.00;;
37971;SDS011;23794;48.234;8.344;2023-04-03T09:56:00;2.97;;;1.60;;
37971;SDS011;23794;48.234;8.344;2023-04-03T09:58:39;4.05;;;2.20;;
37971;SDS011;23794;48.234;8.344;2023-04-03T10:04:06;3.53;;;1.88;;
37971;SDS011;23794;48.234;8.344;2023-04-03T10:06:46;2.83;;;1.73;;
37971;SDS011;23794;48.234;8.344;2023-04-03T10:14:37;3.70;;;2.15;;
37971;SDS011;23794;48.234;8.344;2023-04-03T10:19:48;2.70;;;1.70;;
37971;SDS011;23794;48.234;8.344;2023-04-03T10:33:12;4.05;;;2.28;;
37971;SDS011;23794;48.234;8.344;2023-04-03T10:38:21;2.70;;;1.60;;
37971;SDS011;23794;48.234;8.344;2023-04-03T10:57:36;2.90;;;2.05;;
37971;SDS011;23794;48.234;8.344;2023-04-03T11:00:04;4.65;;;1.70;;
37971;SDS011;23794;48.234;8.344;2023-04-03T11:08:23;2.45;;;1.80;;
37971;SDS011;23794;48.234;8.344;2023-04-03T11:11:00;2.60;;;1.95;;
37971;SDS011;23794;48.234;8.344;2023-04-03T11:16:06;3.45;;;2.10;;
37971;SDS011;23794;48.234;8.344;2023-04-03T11:18:40;5.25;;;1.90;;
37971;SDS011;23794;48.234;8.344;2023-04-03T11:21:17;2.78;;;1.80;;
37971;SDS011;23794;48.234;8.344;2023-04-03T11:23:45;3.08;;;2.10;;
37971;SDS011;23794;48.234;8.344;2023-04-03T11:26:16;3.22;;;2.30;;
37971;SDS011;23794;48.234;8.344;2023-04-03T11:28:45;3.95;;;2.30;;
37971;SDS011;23794;48.234;8.344;2023-04-03T11:36:48;3.67;;;1.90;;
37971;SDS011;23794;48.234;8.344;2023-04-03T11:39:24;2.67;;;1.70;;
37971;SDS011;23794;48.234;8.344;2023-04-03T11:41:54;4.05;;;2.35;;
37971;SDS011;23794;48.234;8.344;2023-04-03T11:44:38;2.67;;;2.05;;
37971;SDS011;23794;48.234;8.344;2023-04-03T11:47:09;3.13;;;2.08;;
37971;SDS011;23794;48.234;8.344;2023-04-03T12:03:29;3.08;;;1.75;;
37971;SDS011;23794;48.234;8.344;2023-04-03T12:06:41;3.20;;;1.55;;
37971;SDS011;23794;48.234;8.344;2023-04-03T12:09:26;3.03;;;1.70;;
37971;SDS011;23794;48.234;8.344;2023-04-03T12:12:21;3.35;;;2.20;;
37971;SDS011;23794;48.234;8.344;2023-04-03T12:15:11;5.30;;;3.20;;
37971;SDS011;23794;48.234;8.344;2023-04-03T12:17:44;2.85;;;1.90;;
37971;SDS011;23794;48.234;8.344;2023-04-03T12:20:45;3.38;;;2.03;;
37971;SDS011;23794;48.234;8.344;2023-04-03T12:23:33;2.60;;;1.40;;
37971;SDS011;23794;48.234;8.344;2023-04-03T12:26:18;4.22;;;1.85;;
37971;SDS011;23794;48.234;8.344;2023-04-03T12:28:48;2.50;;;1.90;;
37971;SDS011;23794;48.234;8.344;2023-04-03T12:31:17;3.35;;;2.10;;
37971;SDS011;23794;48.234;8.344;2023-04-03T12:42:28;2.25;;;1.88;;
37971;SDS011;23794;48.234;8.344;2023-04-03T12:47:35;3.65;;;1.77;;
37971;SDS011;23794;48.234;8.344;2023-04-03T12:50:04;3.40;;;1.83;;
37971;SDS011;23794;48.234;8.344;2023-04-03T12:52:47;2.70;;;1.60;;
37971;SDS011;23794;48.234;8.344;2023-04-03T12:55:20;3.38;;;1.50;;
37971;SDS011;23794;48.234;8.344;2023-04-03T12:57:48;1.98;;;1.40;;
37971;SDS011;23794;48.234;8.344;2023-04-03T13:00:19;2.38;;;1.65;;
37971;SDS011;23794;48.234;8.344;2023-04-03T13:02:49;2.78;;;1.75;;
37971;SDS011;23794;48.234;8.344;2023-04-03T13:05:16;2.75;;;1.65;;
37971;SDS011;23794;48.234;8.344;2023-04-03T13:07:48;3.47;;;1.80;;
37971;SDS011;23794;48.234;8.344;2023-04-03T13:10:18;3.67;;;1.90;;
37971;SDS011;23794;48.234;8.344;2023-04-03T13:15:20;2.67;;;1.58;;
37971;SDS011;23794;48.234;8.344;2023-04-03T13:17:51;3.15;;;1.73;;
37971;SDS011;23794;48.234;8.344;2023-04-03T13:22:51;3.55;;;1.58;;
37971;SDS011;23794;48.234;8.344;2023-04-03T13:25:23;3.60;;;2.03;;
37971;SDS011;23794;48.234;8.344;2023-04-03T13:27:52;2.10;;;1.27;;
37971;SDS011;23794;48.234;8.344;2023-04-03T13:30:38;2.17;;;1.42;;
37971;SDS011;23794;48.234;8.344;2023-04-03T13:33:17;3.88;;;1.90;;
37971;SDS011;23794;48.234;8.344;2023-04-03T13:35:48;2.33;;;1.30;;
37971;SDS011;23794;48.234;8.344;2023-04-03T13:38:29;4.78;;;1.52;;
37971;SDS011;23794;48.234;8.344;2023-04-03T13:41:04;2.35;;;1.55;;
37971;SDS011;23794;48.234;8.344;2023-04-03T13:43:47;2.78;;;1.58;;
37971;SDS011;23794;48.234;8.344;2023-04-03T13:48:43;4.80;;;2.00;;
37971;SDS011;23794;48.234;8.344;2023-04-03T13:53:46;4.57;;;2.00;;
37971;SDS011;23794;48.234;8.344;2023-04-03T13:59:03;2.85;;;1.85;;
37971;SDS011;23794;48.234;8.344;2023-04-03T14:06:49;3.58;;;1.88;;
37971;SDS011;23794;48.234;8.344;2023-04-03T14:09:16;4.45;;;1.98;;
37971;SDS011;23794;48.234;8.344;2023-04-03T14:11:44;1.90;;;1.10;;
37971;SDS011;23794;48.234;8.344;2023-04-03T14:14:21;2.17;;;1.33;;
37971;SDS011;23794;48.234;8.344;2023-04-03T14:16:52;3.03;;;1.65;;
37971;SDS011;23794;48.234;8.344;2023-04-03T14:19:25;3.10;;;1.83;;
37971;SDS011;23794;48.234;8.344;2023-04-03T14:21:54;3.38;;;2.03;;
37971;SDS011;23794;48.234;8.344;2023-04-03T14:24:22;3.55;;;2.08;;
37971;SDS011;23794;48.234;8.344;2023-04-03T14:26:51;3.65;;;1.60;;
37971;SDS011;23794;48.234;8.344;2023-04-03T14:29:19;3.55;;;1.42;;
37971;SDS011;23794;48.234;8.344;2023-04-03T14:31:48;2.00;;;1.60;;
37971;SDS011;23794;48.234;8.344;2023-04-03T14:34:25;2.60;;;1.50;;
37971;SDS011;23794;48.234;8.344;2023-04-03T14:36:52;2.53;;;1.90;;
37971;SDS011;23794;48.234;8.344;2023-04-03T14:39:19;3.38;;;1.30;;
37971;SDS011;23794;48.234;8.344;2023-04-03T14:41:46;4.32;;;1.50;;
37971;SDS011;23794;48.234;8.344;2023-04-03T14:44:13;5.50;;;1.60;;
37971;SDS011;23794;48.234;8.344;2023-04-03T14:46:41;4.57;;;2.05;;
37971;SDS011;23794;48.234;8.344;2023-04-03T14:49:15;2.38;;;1.65;;
37971;SDS011;23794;48.234;8.344;2023-04-03T14:51:44;2.25;;;1.58;;
37971;SDS011;23794;48.234;8.344;2023-04-03T14:54:15;1.83;;;1.27;;
37971;SDS011;23794;48.234;8.344;2023-04-03T14:56:47;4.20;;;1.58;;
37971;SDS011;23794;48.234;8.344;2023-04-03T14:59:14;2.72;;;1.40;;
37971;SDS011;23794;48.234;8.344;2023-04-03T15:01:43;5.40;;;1.50;;
37971;SDS011;23794;48.234;8.344;2023-04-03T15:04:12;4.80;;;2.10;;
37971;SDS011;23794;48.234;8.344;2023-04-03T15:06:40;2.20;;;1.38;;
37971;SDS011;23794;48.234;8.344;2023-04-03T15:09:14;3.70;;;1.50;;
37971;SDS011;23794;48.234;8.344;2023-04-03T15:11:54;2.13;;;1.17;;
37971;SDS011;23794;48.234;8.344;2023-04-03T15:14:21;3.78;;;2.28;;
37971;SDS011;23794;48.234;8.344;2023-04-03T15:17:06;5.20;;;1.38;;
37971;SDS011;23794;48.234;8.344;2023-04-03T15:19:39;2.78;;;1.63;;
37971;SDS011;23794;48.234;8.344;2023-04-03T15:22:06;4.82;;;1.73;;
37971;SDS011;23794;48.234;8.344;2023-04-03T15:24:35;4.10;;;1.75;;
37971;SDS011;23794;48.234;8.344;2023-04-03T15:27:01;3.78;;;1.50;;
37971;SDS011;23794;48.234;8.344;2023-04-03T15:29:28;3.50;;;1.65;;
37971;SDS011;23794;48.234;8.344;2023-04-03T15:31:55;2.70;;;1.60;;
37971;SDS011;23794;48.234;8.344;2023-04-03T15:34:22;3.30;;;1.70;;
37971;SDS011;23794;48.234;8.344;2023-04-03T15:36:49;2.67;;;1.60;;
37971;SDS011;23794;48.234;8.344;2023-04-03T15:39:19;5.15;;;2.15;;
37971;SDS011;23794;48.234;8.344;2023-04-03T15:41:47;4.05;;;2.08;;
37971;SDS011;23794;48.234;8.344;2023-04-03T15:44:13;2.75;;;1.50;;
37971;SDS011;23794;48.234;8.344;2023-04-03T15:46:44;3.67;;;1.92;;
37971;SDS011;23794;48.234;8.344;2023-04-03T15:49:12;3.05;;;1.50;;
37971;SDS011;23794;48.234;8.344;2023-04-03T15:51:39;3.33;;;1.40;;
37971;SDS011;23794;48.234;8.344;2023-04-03T15:54:06;3.25;;;1.60;;
37971;SDS011;23794;48.234;8.344;2023-04-03T15:56:33;3.40;;;1.67;;
37971;SDS011;23794;48.234;8.344;2023-04-03T15:58:59;2.97;;;1.60;;
37971;SDS011;23794;48.234;8.344;2023-04-03T16:01:26;2.53;;;1.38;;
37971;SDS011;23794;48.234;8.344;2023-04-03T16:03:53;3.05;;;1.23;;
37971;SDS011;23794;48.234;8.344;2023-04-03T16:06:20;4.07;;;1.50;;
37971;SDS011;23794;48.234;8.344;2023-04-03T16:08:47;4.78;;;1.77;;
37971;SDS011;23794;48.234;8.344;2023-04-03T16:11:15;2.28;;;1.25;;
37971;SDS011;23794;48.234;8.344;2023-04-03T16:13:42;2.30;;;1.35;;
37971;SDS011;23794;48.234;8.344;2023-04-03T16:16:09;2.55;;;1.40;;
37971;SDS011;23794;48.234;8.344;2023-04-03T16:18:36;5.40;;;1.50;;
37971;SDS011;23794;48.234;8.344;2023-04-03T16:21:03;2.92;;;1.10;;
37971;SDS011;23794;48.234;8.344;2023-04-03T16:23:29;3.85;;;1.40;;
37971;SDS011;23794;48.234;8.344;2023-04-03T16:25:56;2.97;;;2.00;;
37971;SDS011;23794;48.234;8.344;2023-04-03T16:28:23;8.25;;;3.75;;
37971;SDS011;23794;48.234;8.344;2023-04-03T16:30:50;2.35;;;1.20;;
37971;SDS011;23794;48.234;8.344;2023-04-03T16:33:17;2.22;;;1.30;;
37971;SDS011;23794;48.234;8.344;2023-04-03T16:35:48;3.15;;;1.60;;
37971;SDS011;23794;48.234;8.344;2023-04-03T16:38:15;2.92;;;1.30;;
37971;SDS011;23794;48.234;8.344;2023-04-03T16:40:42;3.17;;;1.30;;
37971;SDS011;23794;48.234;8.344;2023-04-03T16:43:09;2.95;;;1.60;;
37971;SDS011;23794;48.234;8.344;2023-04-03T16:45:36;3.22;;;1.25;;
37971;SDS011;23794;48.234;8.344;2023-04-03T16:48:04;2.80;;;1.70;;
37971;SDS011;23794;48.234;8.344;2023-04-03T16:50:31;3.65;;;1.38;;
37971;SDS011;23794;48.234;8.344;2023-04-03T16:52:58;4.13;;;1.17;;
37971;SDS011;23794;48.234;8.344;2023-04-03T16:55:25;2.47;;;1.33;;
37971;SDS011;23794;48.234;8.344;2023-04-03T16:57:52;3.38;;;2.13;;
37971;SDS011;23794;48.234;8.344;2023-04-03T17:00:20;5.28;;;1.85;;
37971;SDS011;23794;48.234;8.344;2023-04-03T17:02:47;2.97;;;1.60;;
37971;SDS011;23794;48.234;8.344;2023-04-03T17:05:14;2.55;;;1.58;;
37971;SDS011;23794;48.234;8.344;2023-04-03T17:07:41;2.83;;;1.50;;
37971;SDS011;23794;48.234;8.344;2023-04-03T17:10:07;3.45;;;1.58;;
37971;SDS011;23794;48.234;8.344;2023-04-03T17:12:34;3.97;;;1.17;;
37971;SDS011;23794;48.234;8.344;2023-04-03T17:15:01;2.63;;;1.40;;
37971;SDS011;23794;48.234;8.344;2023-04-03T17:17:28;3.42;;;1.70;;
37971;SDS011;23794;48.234;8.344;2023-04-03T17:19:55;4.63;;;1.60;;
37971;SDS011;23794;48.234;8.344;2023-04-03T17:22:22;3.38;;;1.58;;
37971;SDS011;23794;48.234;8.344;2023-04-03T17:24:49;5.05;;;1.75;;
37971;SDS011;23794;48.234;8.344;2023-04-03T17:27:16;3.22;;;1.55;;
37971;SDS011;23794;48.234;8.344;2023-04-03T17:29:42;3.25;;;1.30;;